Time,TemperatureF,DewpointF,PressureIn,WindDirection,WindDirectionDegrees,WindSpeedMPH,WindSpeedGustMPH,Humidity,HourlyPrecipIn,Conditions,Clouds,dailyrainin,SoftwareType,DateUTC
2013-03-20 00:00:00,27.7,19.9,30.28,NE,45,4.2,-999.0,72,-99.99,,,0.00,Acu-Link.com,2013-03-20 05:00:00,
2013-03-20 00:15:00,26.8,20.0,30.28,NE,45,2.2,-999.0,75,-99.99,,,0.00,Acu-Link.com,2013-03-20 05:15:00,
2013-03-20 00:30:00,26.1,19.3,30.29,NE,45,2.7,-999.0,75,-99.99,,,0.00,Acu-Link.com,2013-03-20 05:30:00,
2013-03-20 00:45:00,25.3,18.2,30.30,NNE,22,3.7,-999.0,74,-99.99,,,0.00,Acu-Link.com,2013-03-20 05:45:00,
2013-03-20 01:01:00,24.4,17.9,30.30,North,0,2.7,-999.0,76,-99.99,,,0.00,Acu-Link.com,2013-03-20 06:01:00,
2013-03-20 01:46:00,21.9,17.0,30.31,SSW,202,1.1,-999.0,81,-99.99,,,0.00,Acu-Link.com,2013-03-20 06:46:00,
2013-03-20 02:01:00,21.9,17.3,30.32,NE,45,0.0,-999.0,82,-99.99,,,0.00,Acu-Link.com,2013-03-20 07:01:00,
2013-03-20 02:17:00,22.3,17.1,30.33,WNW,292,3.2,-999.0,80,-99.99,,,0.00,Acu-Link.com,2013-03-20 07:17:00,
2013-03-20 02:32:00,22.3,16.8,30.33,West,270,4.7,-999.0,79,-99.99,,,0.00,Acu-Link.com,2013-03-20 07:32:00,
2013-03-20 02:48:00,22.1,17.2,30.34,WNW,292,2.2,-999.0,81,-99.99,,,0.00,Acu-Link.com,2013-03-20 07:48:00,
2013-03-20 03:03:00,21.4,16.5,30.34,NW,315,2.7,-999.0,81,-99.99,,,0.00,Acu-Link.com,2013-03-20 08:03:00,
2013-03-20 03:23:00,21.2,16.3,30.34,NW,315,3.2,-999.0,81,-99.99,,,0.00,Acu-Link.com,2013-03-20 08:23:00,
2013-03-20 03:38:00,21.2,16.0,30.35,North,0,1.7,-999.0,80,-99.99,,,0.00,Acu-Link.com,2013-03-20 08:38:00,
2013-03-20 03:53:00,19.4,15.1,30.34,ENE,67,2.2,-999.0,83,-99.99,,,0.00,Acu-Link.com,2013-03-20 08:53:00,
2013-03-20 04:08:00,18.3,14.8,30.33,NW,315,1.7,-999.0,86,-99.99,,,0.00,Acu-Link.com,2013-03-20 09:08:00,
2013-03-20 04:23:00,18.0,14.5,30.33,WNW,292,2.7,-999.0,86,-99.99,,,0.00,Acu-Link.com,2013-03-20 09:23:00,
2013-03-20 04:38:00,17.4,14.2,30.33,WNW,292,0.0,-999.0,87,-99.99,,,0.00,Acu-Link.com,2013-03-20 09:38:00,
2013-03-20 04:54:00,16.7,13.8,30.32,NNW,337,2.2,-999.0,88,-99.99,,,0.00,Acu-Link.com,2013-03-20 09:54:00,
2013-03-20 05:09:00,16.2,13.5,30.32,West,270,2.2,-999.0,89,-99.99,,,0.00,Acu-Link.com,2013-03-20 10:09:00,
2013-03-20 05:24:00,16.0,13.3,30.32,North,0,1.1,-999.0,89,-99.99,,,0.00,Acu-Link.com,2013-03-20 10:24:00,
2013-03-20 05:40:00,15.3,12.9,30.32,East,90,0.0,-999.0,90,-99.99,,,0.00,Acu-Link.com,2013-03-20 10:40:00,
2013-03-20 05:55:00,14.9,12.8,30.32,NNE,22,0.0,-999.0,91,-99.99,,,0.00,Acu-Link.com,2013-03-20 10:55:00,
2013-03-20 06:10:00,14.5,12.4,30.32,NNE,22,0.0,-999.0,91,-99.99,,,0.00,Acu-Link.com,2013-03-20 11:10:00,
2013-03-20 06:25:00,13.5,11.1,30.31,ESE,112,0.0,-999.0,90,-99.99,,,0.00,Acu-Link.com,2013-03-20 11:25:00,
2013-03-20 07:11:00,12.6,11.0,30.31,NNE,22,0.0,-999.0,93,-99.99,,,0.00,Acu-Link.com,2013-03-20 12:11:00,
2013-03-20 07:27:00,13.1,11.2,30.32,North,0,0.0,-999.0,92,-99.99,,,0.00,Acu-Link.com,2013-03-20 12:27:00,
2013-03-20 07:42:00,12.9,11.3,30.32,North,0,0.0,-999.0,93,-99.99,,,0.00,Acu-Link.com,2013-03-20 12:42:00,
2013-03-20 07:57:00,12.6,10.7,30.31,North,0,0.0,-999.0,92,-99.99,,,0.00,Acu-Link.com,2013-03-20 12:57:00,
2013-03-20 08:13:00,14.7,13.1,30.31,North,0,1.7,-999.0,93,-99.99,,,0.00,Acu-Link.com,2013-03-20 13:13:00,
2013-03-20 08:28:00,16.2,13.8,30.31,North,0,0.0,-999.0,90,-99.99,,,0.00,Acu-Link.com,2013-03-20 13:28:00,
2013-03-20 08:43:00,20.3,16.8,30.31,ENE,67,1.7,-999.0,86,-99.99,,,0.00,Acu-Link.com,2013-03-20 13:43:00,
2013-03-20 08:58:00,22.5,15.8,30.30,NW,315,1.7,-999.0,75,-99.99,,,0.00,Acu-Link.com,2013-03-20 13:58:00,
2013-03-20 09:13:00,21.7,14.7,30.31,West,270,4.7,-999.0,74,-99.99,,,0.00,Acu-Link.com,2013-03-20 14:13:00,
2013-03-20 09:29:00,21.7,15.6,30.31,NNW,337,2.7,-999.0,77,-99.99,,,0.00,Acu-Link.com,2013-03-20 14:29:00,
2013-03-20 09:44:00,21.6,15.8,30.31,NE,45,3.2,-999.0,78,-99.99,,,0.00,Acu-Link.com,2013-03-20 14:44:00,
2013-03-20 09:59:00,22.5,16.1,30.31,North,0,3.2,-999.0,76,-99.99,,,0.00,Acu-Link.com,2013-03-20 14:59:00,
2013-03-20 10:15:00,23.7,16.0,30.31,NNW,337,3.7,-999.0,72,-99.99,,,0.00,Acu-Link.com,2013-03-20 15:15:00,
2013-03-20 10:30:00,25.5,15.7,30.30,NNW,337,4.2,-999.0,66,-99.99,,,0.00,Acu-Link.com,2013-03-20 15:30:00,
2013-03-20 10:46:00,26.6,15.4,30.30,NNE,22,4.7,-999.0,62,-99.99,,,0.00,Acu-Link.com,2013-03-20 15:46:00,
2013-03-20 11:16:00,29.7,15.1,30.29,SW,225,2.2,-999.0,54,-99.99,,,0.00,Acu-Link.com,2013-03-20 16:16:00,
2013-03-20 11:32:00,30.4,14.5,30.28,South,180,3.2,-999.0,51,-99.99,,,0.00,Acu-Link.com,2013-03-20 16:32:00,
2013-03-20 11:47:00,32.0,14.6,30.27,NE,45,2.7,-999.0,48,-99.99,,,0.00,Acu-Link.com,2013-03-20 16:47:00,
2013-03-20 12:02:00,31.5,12.6,30.26,SW,225,2.2,-999.0,45,-99.99,,,0.00,Acu-Link.com,2013-03-20 17:02:00,
2013-03-20 12:17:00,33.6,11.9,30.25,West,270,2.7,-999.0,40,-99.99,,,0.00,Acu-Link.com,2013-03-20 17:17:00,
2013-03-20 12:32:00,34.7,12.3,30.25,SW,225,2.7,-999.0,39,-99.99,,,0.00,Acu-Link.com,2013-03-20 17:32:00,
2013-03-20 12:48:00,35.8,12.1,30.24,NE,45,3.2,-999.0,37,-99.99,,,0.00,Acu-Link.com,2013-03-20 17:48:00,
2013-03-20 13:03:00,35.4,11.1,30.22,West,270,1.7,-999.0,36,-99.99,,,0.00,Acu-Link.com,2013-03-20 18:03:00,
2013-03-20 13:18:00,36.5,12.1,30.21,North,0,4.2,-999.0,36,-99.99,,,0.00,Acu-Link.com,2013-03-20 18:18:00,
2013-03-20 13:34:00,38.8,13.5,30.20,ENE,67,3.2,-999.0,35,-99.99,,,0.00,Acu-Link.com,2013-03-20 18:34:00,
2013-03-20 13:49:00,38.3,13.7,30.19,NW,315,4.7,-999.0,36,-99.99,,,0.00,Acu-Link.com,2013-03-20 18:49:00,
2013-03-20 14:05:00,38.3,13.1,30.18,SSW,202,1.7,-999.0,35,-99.99,,,0.00,Acu-Link.com,2013-03-20 19:05:00,
2013-03-20 14:20:00,40.1,14.0,30.17,SSW,202,6.3,-999.0,34,-99.99,,,0.00,Acu-Link.com,2013-03-20 19:20:00,
2013-03-20 14:35:00,40.8,14.0,30.15,WNW,292,3.2,-999.0,33,-99.99,,,0.00,Acu-Link.com,2013-03-20 19:35:00,
2013-03-20 14:50:00,39.9,13.8,30.14,NW,315,2.2,-999.0,34,-99.99,,,0.00,Acu-Link.com,2013-03-20 19:50:00,
2013-03-20 15:05:00,42.4,15.4,30.12,SW,225,2.7,-999.0,33,-99.99,,,0.00,Acu-Link.com,2013-03-20 20:05:00,
2013-03-20 15:20:00,42.3,14.6,30.11,SSE,157,2.7,-999.0,32,-99.99,,,0.00,Acu-Link.com,2013-03-20 20:20:00,
2013-03-20 15:35:00,42.1,14.4,30.09,ESE,112,1.7,-999.0,32,-99.99,,,0.00,Acu-Link.com,2013-03-20 20:35:00,
2013-03-20 16:06:00,43.0,16.6,30.08,SW,225,0.0,-999.0,34,-99.99,,,0.00,Acu-Link.com,2013-03-20 21:06:00,
2013-03-20 16:21:00,43.0,15.9,30.06,WNW,292,2.2,-999.0,33,-99.99,,,0.00,Acu-Link.com,2013-03-20 21:21:00,
2013-03-20 16:37:00,43.3,15.4,30.05,NNE,22,1.7,-999.0,32,-99.99,,,0.00,Acu-Link.com,2013-03-20 21:37:00,
2013-03-20 16:52:00,44.1,14.7,30.05,SSE,157,4.2,-999.0,30,-99.99,,,0.00,Acu-Link.com,2013-03-20 21:52:00,
2013-03-20 17:07:00,44.8,15.3,30.03,WNW,292,3.7,-999.0,30,-99.99,,,0.00,Acu-Link.com,2013-03-20 22:07:00,
2013-03-20 17:22:00,45.0,16.2,30.03,ESE,112,2.7,-999.0,31,-99.99,,,0.00,Acu-Link.com,2013-03-20 22:22:00,
2013-03-20 17:38:00,44.2,15.5,30.02,SW,225,2.7,-999.0,31,-99.99,,,0.00,Acu-Link.com,2013-03-20 22:38:00,
2013-03-20 17:53:00,44.8,16.0,30.02,South,180,3.2,-999.0,31,-99.99,,,0.00,Acu-Link.com,2013-03-20 22:53:00,
2013-03-20 18:08:00,43.5,17.0,30.01,South,180,1.1,-999.0,34,-99.99,,,0.00,Acu-Link.com,2013-03-20 23:08:00,
2013-03-20 18:23:00,43.0,15.9,30.01,SSW,202,3.2,-999.0,33,-99.99,,,0.00,Acu-Link.com,2013-03-20 23:23:00,
2013-03-20 18:38:00,42.3,16.0,30.01,West,270,2.2,-999.0,34,-99.99,,,0.00,Acu-Link.com,2013-03-20 23:38:00,
2013-03-20 18:54:00,42.1,16.4,30.00,West,270,1.1,-999.0,35,-99.99,,,0.00,Acu-Link.com,2013-03-20 23:54:00,
2013-03-20 19:09:00,40.8,16.6,30.00,ESE,112,2.7,-999.0,37,-99.99,,,0.00,Acu-Link.com,2013-03-21 00:09:00,
2013-03-20 19:24:00,39.2,16.9,29.99,ESE,112,1.7,-999.0,40,-99.99,,,0.00,Acu-Link.com,2013-03-21 00:24:00,
2013-03-20 19:40:00,37.8,17.3,29.98,SSE,157,0.0,-999.0,43,-99.99,,,0.00,Acu-Link.com,2013-03-21 00:40:00,
2013-03-20 19:55:00,36.3,17.5,29.97,SSW,202,0.0,-999.0,46,-99.99,,,0.00,Acu-Link.com,2013-03-21 00:55:00,
2013-03-20 20:10:00,35.2,17.5,29.97,ESE,112,3.7,-999.0,48,-99.99,,,0.00,Acu-Link.com,2013-03-21 01:10:00,
2013-03-20 20:26:00,34.5,17.8,29.96,SSE,157,3.2,-999.0,50,-99.99,,,0.00,Acu-Link.com,2013-03-21 01:26:00,
2013-03-20 20:41:00,35.1,18.4,29.95,SE,135,2.7,-999.0,50,-99.99,,,0.00,Acu-Link.com,2013-03-21 01:41:00,
2013-03-20 21:11:00,34.9,18.2,29.95,ESE,112,3.7,-999.0,50,-99.99,,,0.00,Acu-Link.com,2013-03-21 02:11:00,
2013-03-20 21:26:00,34.2,18.0,29.94,East,90,2.2,-999.0,51,-99.99,,,0.00,Acu-Link.com,2013-03-21 02:26:00,
2013-03-20 21:41:00,33.6,17.4,29.95,ESE,112,3.2,-999.0,51,-99.99,,,0.00,Acu-Link.com,2013-03-21 02:41:00,
2013-03-20 21:56:00,33.1,17.0,29.94,ESE,112,3.7,-999.0,51,-99.99,,,0.00,Acu-Link.com,2013-03-21 02:56:00,
2013-03-20 22:12:00,32.7,17.0,29.94,ESE,112,5.8,-999.0,52,-99.99,,,0.00,Acu-Link.com,2013-03-21 03:12:00,
2013-03-20 22:27:00,32.5,16.9,29.93,ESE,112,7.3,-999.0,52,-99.99,,,0.00,Acu-Link.com,2013-03-21 03:27:00,
2013-03-20 22:42:00,32.2,16.6,29.94,ENE,67,3.7,-999.0,52,-99.99,,,0.00,Acu-Link.com,2013-03-21 03:42:00,
2013-03-20 22:57:00,32.0,16.4,29.94,SSE,157,3.2,-999.0,52,-99.99,,,0.00,Acu-Link.com,2013-03-21 03:57:00,
2013-03-20 23:13:00,31.6,16.5,29.95,ESE,112,7.8,-999.0,53,-99.99,,,0.00,Acu-Link.com,2013-03-21 04:13:00,
2013-03-20 23:28:00,31.6,16.5,29.95,South,180,4.2,-999.0,53,-99.99,,,0.00,Acu-Link.com,2013-03-21 04:28:00,
2013-03-20 23:43:00,31.3,16.6,29.94,ESE,112,4.7,-999.0,54,-99.99,,,0.00,Acu-Link.com,2013-03-21 04:43:00,
2013-03-20 23:58:00,31.1,16.4,29.95,ESE,112,2.7,-999.0,54,-99.99,,,0.00,Acu-Link.com,2013-03-21 04:58:00,